X  Close Metar Aviation Weather Data     EHRD Rotterdam The Hague Airport
Temperature
1°C Temperature
1°C Dewpoint
100% Humidity



Wind
5 KM/H
3 MPH
1 M/S
3 KTS



10°
North
Current Conditions

Mist Mist
Pressure 1027.92 (hPa) - 30.35 (inHg)
Visibility 1.2 (mile) - 2 (km)
Airport
Airport-code EHRD

Location: Rotterdam The Hague Airport
Distance: 16 (km)

Metar:
EHRD 010655Z AUTO 01003KT 2000 R06/1200U BR SCT005 OVC047 01/01 Q1028 BECMG 1200 BCFG

Time: 01-12-2022 07:55 CET